sensor_id;sensor_type;location;lat;lon;timestamp;P1;durP1;ratioP1;P2;durP2;ratioP2
6580;SDS011;3324;50.796;7.228;2022-11-13T00:00:45;0.30;;;0.20;;
6580;SDS011;3324;50.796;7.228;2022-11-13T00:03:10;0.30;;;0.20;;
6580;SDS011;3324;50.796;7.228;2022-11-13T00:05:36;2.10;;;0.50;;
6580;SDS011;3324;50.796;7.228;2022-11-13T00:08:01;0.30;;;0.20;;
6580;SDS011;3324;50.796;7.228;2022-11-13T00:10:27;0.30;;;0.20;;
6580;SDS011;3324;50.796;7.228;2022-11-13T00:12:53;0.30;;;0.20;;
6580;SDS011;3324;50.796;7.228;2022-11-13T00:15:19;0.30;;;0.20;;
6580;SDS011;3324;50.796;7.228;2022-11-13T00:17:45;0.30;;;0.20;;
6580;SDS011;3324;50.796;7.228;2022-11-13T00:20:11;2.10;;;0.50;;
6580;SDS011;3324;50.796;7.228;2022-11-13T00:22:37;2.10;;;0.50;;
6580;SDS011;3324;50.796;7.228;2022-11-13T00:25:03;0.30;;;0.10;;
6580;SDS011;3324;50.796;7.228;2022-11-13T00:27:29;0.30;;;0.10;;
6580;SDS011;3324;50.796;7.228;2022-11-13T00:29:55;0.30;;;0.20;;
6580;SDS011;3324;50.796;7.228;2022-11-13T00:32:21;0.30;;;0.10;;
6580;SDS011;3324;50.796;7.228;2022-11-13T00:34:46;0.30;;;0.10;;
6580;SDS011;3324;50.796;7.228;2022-11-13T00:37:12;0.30;;;0.20;;
6580;SDS011;3324;50.796;7.228;2022-11-13T00:39:38;2.10;;;0.50;;
6580;SDS011;3324;50.796;7.228;2022-11-13T00:42:03;0.30;;;0.10;;
6580;SDS011;3324;50.796;7.228;2022-11-13T00:44:29;0.30;;;0.20;;
6580;SDS011;3324;50.796;7.228;2022-11-13T00:46:54;0.30;;;0.20;;
6580;SDS011;3324;50.796;7.228;2022-11-13T00:49:20;2.10;;;0.50;;
6580;SDS011;3324;50.796;7.228;2022-11-13T00:51:46;2.10;;;0.50;;
6580;SDS011;3324;50.796;7.228;2022-11-13T00:54:11;0.30;;;0.20;;
6580;SDS011;3324;50.796;7.228;2022-11-13T00:56:37;0.30;;;0.20;;
6580;SDS011;3324;50.796;7.228;2022-11-13T00:59:02;0.30;;;0.20;;
6580;SDS011;3324;50.796;7.228;2022-11-13T01:01:28;2.10;;;0.50;;
6580;SDS011;3324;50.796;7.228;2022-11-13T01:03:53;0.30;;;0.20;;
6580;SDS011;3324;50.796;7.228;2022-11-13T01:06:21;0.30;;;0.20;;
6580;SDS011;3324;50.796;7.228;2022-11-13T01:08:49;0.30;;;0.10;;
6580;SDS011;3324;50.796;7.228;2022-11-13T01:11:18;0.30;;;0.10;;
6580;SDS011;3324;50.796;7.228;2022-11-13T01:13:46;2.10;;;0.50;;
6580;SDS011;3324;50.796;7.228;2022-11-13T01:16:13;0.30;;;0.10;;
6580;SDS011;3324;50.796;7.228;2022-11-13T01:18:40;0.30;;;0.10;;
6580;SDS011;3324;50.796;7.228;2022-11-13T01:21:11;0.30;;;0.15;;
6580;SDS011;3324;50.796;7.228;2022-11-13T01:23:39;0.30;;;0.20;;
6580;SDS011;3324;50.796;7.228;2022-11-13T01:28:30;0.30;;;0.20;;
6580;SDS011;3324;50.796;7.228;2022-11-13T01:30:56;0.30;;;0.20;;
6580;SDS011;3324;50.796;7.228;2022-11-13T01:33:21;0.30;;;0.20;;
6580;SDS011;3324;50.796;7.228;2022-11-13T01:35:47;2.10;;;0.50;;
6580;SDS011;3324;50.796;7.228;2022-11-13T01:38:13;0.30;;;0.20;;
6580;SDS011;3324;50.796;7.228;2022-11-13T01:40:47;0.30;;;0.20;;
6580;SDS011;3324;50.796;7.228;2022-11-13T01:43:18;0.30;;;0.20;;
6580;SDS011;3324;50.796;7.228;2022-11-13T01:48:27;2.10;;;0.50;;
6580;SDS011;3324;50.796;7.228;2022-11-13T01:51:07;0.30;;;0.20;;
6580;SDS011;3324;50.796;7.228;2022-11-13T01:53:36;9.50;;;8.75;;
6580;SDS011;3324;50.796;7.228;2022-11-13T01:56:03;0.30;;;0.20;;
6580;SDS011;3324;50.796;7.228;2022-11-13T01:58:29;0.30;;;0.20;;
6580;SDS011;3324;50.796;7.228;2022-11-13T02:00:55;0.30;;;0.20;;
6580;SDS011;3324;50.796;7.228;2022-11-13T02:03:21;0.30;;;0.20;;
6580;SDS011;3324;50.796;7.228;2022-11-13T02:05:46;2.10;;;0.60;;
6580;SDS011;3324;50.796;7.228;2022-11-13T02:08:12;0.30;;;0.20;;
6580;SDS011;3324;50.796;7.228;2022-11-13T02:10:37;0.30;;;0.20;;
6580;SDS011;3324;50.796;7.228;2022-11-13T02:13:03;0.30;;;0.20;;
6580;SDS011;3324;50.796;7.228;2022-11-13T02:15:31;2.10;;;0.60;;
6580;SDS011;3324;50.796;7.228;2022-11-13T02:17:58;2.10;;;0.60;;
6580;SDS011;3324;50.796;7.228;2022-11-13T02:25:51;0.30;;;0.20;;
6580;SDS011;3324;50.796;7.228;2022-11-13T02:28:18;0.30;;;0.10;;
6580;SDS011;3324;50.796;7.228;2022-11-13T02:30:44;0.30;;;0.20;;
6580;SDS011;3324;50.796;7.228;2022-11-13T02:33:43;0.30;;;0.20;;
6580;SDS011;3324;50.796;7.228;2022-11-13T02:36:02;0.30;;;0.10;;
6580;SDS011;3324;50.796;7.228;2022-11-13T02:38:29;0.30;;;0.10;;
6580;SDS011;3324;50.796;7.228;2022-11-13T02:40:57;0.30;;;0.10;;
6580;SDS011;3324;50.796;7.228;2022-11-13T02:43:23;2.30;;;0.50;;
6580;SDS011;3324;50.796;7.228;2022-11-13T02:45:48;2.10;;;0.50;;
6580;SDS011;3324;50.796;7.228;2022-11-13T02:48:14;0.30;;;0.15;;
6580;SDS011;3324;50.796;7.228;2022-11-13T02:50:39;0.30;;;0.20;;
6580;SDS011;3324;50.796;7.228;2022-11-13T02:53:05;0.30;;;0.20;;
6580;SDS011;3324;50.796;7.228;2022-11-13T02:55:31;0.30;;;0.20;;
6580;SDS011;3324;50.796;7.228;2022-11-13T02:57:57;2.10;;;0.50;;
6580;SDS011;3324;50.796;7.228;2022-11-13T03:00:22;2.10;;;0.50;;
6580;SDS011;3324;50.796;7.228;2022-11-13T03:02:49;0.30;;;0.10;;
6580;SDS011;3324;50.796;7.228;2022-11-13T03:05:14;0.30;;;0.10;;
6580;SDS011;3324;50.796;7.228;2022-11-13T03:07:40;0.30;;;0.10;;
6580;SDS011;3324;50.796;7.228;2022-11-13T03:10:07;0.20;;;0.10;;
6580;SDS011;3324;50.796;7.228;2022-11-13T03:12:34;2.10;;;0.50;;
6580;SDS011;3324;50.796;7.228;2022-11-13T03:15:00;2.10;;;0.50;;
6580;SDS011;3324;50.796;7.228;2022-11-13T03:17:26;0.20;;;0.10;;
6580;SDS011;3324;50.796;7.228;2022-11-13T03:19:51;0.20;;;0.10;;
6580;SDS011;3324;50.796;7.228;2022-11-13T03:22:17;0.30;;;0.10;;
6580;SDS011;3324;50.796;7.228;2022-11-13T03:24:42;0.30;;;0.10;;
6580;SDS011;3324;50.796;7.228;2022-11-13T03:27:08;2.10;;;0.50;;
6580;SDS011;3324;50.796;7.228;2022-11-13T03:29:34;2.10;;;0.50;;
6580;SDS011;3324;50.796;7.228;2022-11-13T03:32:00;0.20;;;0.15;;
6580;SDS011;3324;50.796;7.228;2022-11-13T03:34:27;2.10;;;0.60;;
6580;SDS011;3324;50.796;7.228;2022-11-13T03:36:52;2.00;;;0.40;;
6580;SDS011;3324;50.796;7.228;2022-11-13T03:39:18;0.00;;;0.00;;
6580;SDS011;3324;50.796;7.228;2022-11-13T03:41:43;0.10;;;0.10;;
6580;SDS011;3324;50.796;7.228;2022-11-13T03:44:09;0.10;;;0.10;;
6580;SDS011;3324;50.796;7.228;2022-11-13T03:46:35;1.90;;;0.55;;
6580;SDS011;3324;50.796;7.228;2022-11-13T03:49:00;0.20;;;0.20;;
6580;SDS011;3324;50.796;7.228;2022-11-13T03:51:26;0.20;;;0.20;;
6580;SDS011;3324;50.796;7.228;2022-11-13T03:53:51;0.20;;;0.20;;
6580;SDS011;3324;50.796;7.228;2022-11-13T03:56:18;0.20;;;0.20;;
6580;SDS011;3324;50.796;7.228;2022-11-13T03:58:43;0.00;;;0.00;;
6580;SDS011;3324;50.796;7.228;2022-11-13T04:01:09;2.10;;;0.40;;
6580;SDS011;3324;50.796;7.228;2022-11-13T04:03:35;2.00;;;0.40;;
6580;SDS011;3324;50.796;7.228;2022-11-13T04:06:00;0.10;;;0.10;;
6580;SDS011;3324;50.796;7.228;2022-11-13T04:08:26;0.20;;;0.20;;
6580;SDS011;3324;50.796;7.228;2022-11-13T04:10:51;0.20;;;0.20;;
6580;SDS011;3324;50.796;7.228;2022-11-13T04:13:17;1.90;;;0.55;;
6580;SDS011;3324;50.796;7.228;2022-11-13T04:15:42;0.00;;;0.00;;
6580;SDS011;3324;50.796;7.228;2022-11-13T04:18:08;0.10;;;0.00;;
6580;SDS011;3324;50.796;7.228;2022-11-13T04:20:34;0.00;;;0.00;;
6580;SDS011;3324;50.796;7.228;2022-11-13T04:22:59;0.20;;;0.10;;
6580;SDS011;3324;50.796;7.228;2022-11-13T04:25:25;2.10;;;0.50;;
6580;SDS011;3324;50.796;7.228;2022-11-13T04:27:51;0.20;;;0.10;;
6580;SDS011;3324;50.796;7.228;2022-11-13T04:30:17;0.30;;;0.10;;
6580;SDS011;3324;50.796;7.228;2022-11-13T04:32:44;2.10;;;0.50;;
6580;SDS011;3324;50.796;7.228;2022-11-13T04:35:09;0.30;;;0.10;;
6580;SDS011;3324;50.796;7.228;2022-11-13T04:37:35;0.20;;;0.10;;
6580;SDS011;3324;50.796;7.228;2022-11-13T04:40:01;0.20;;;0.10;;
6580;SDS011;3324;50.796;7.228;2022-11-13T04:42:28;0.20;;;0.10;;
6580;SDS011;3324;50.796;7.228;2022-11-13T04:45:12;0.30;;;0.10;;
6580;SDS011;3324;50.796;7.228;2022-11-13T04:47:38;0.30;;;0.10;;
6580;SDS011;3324;50.796;7.228;2022-11-13T04:50:03;0.20;;;0.10;;
6580;SDS011;3324;50.796;7.228;2022-11-13T04:52:29;0.20;;;0.20;;
6580;SDS011;3324;50.796;7.228;2022-11-13T04:54:55;13.05;;;12.25;;
6580;SDS011;3324;50.796;7.228;2022-11-13T04:57:21;0.20;;;0.20;;
6580;SDS011;3324;50.796;7.228;2022-11-13T04:59:47;1.90;;;0.50;;
6580;SDS011;3324;50.796;7.228;2022-11-13T05:02:13;2.00;;;0.50;;
6580;SDS011;3324;50.796;7.228;2022-11-13T05:04:38;0.20;;;0.20;;
6580;SDS011;3324;50.796;7.228;2022-11-13T05:07:04;0.20;;;0.20;;
6580;SDS011;3324;50.796;7.228;2022-11-13T05:09:29;0.20;;;0.20;;
6580;SDS011;3324;50.796;7.228;2022-11-13T05:11:55;0.20;;;0.10;;
6580;SDS011;3324;50.796;7.228;2022-11-13T05:14:21;2.00;;;0.50;;
6580;SDS011;3324;50.796;7.228;2022-11-13T05:16:47;0.20;;;0.10;;
6580;SDS011;3324;50.796;7.228;2022-11-13T05:19:14;2.10;;;0.40;;
6580;SDS011;3324;50.796;7.228;2022-11-13T05:21:40;2.10;;;0.50;;
6580;SDS011;3324;50.796;7.228;2022-11-13T05:24:08;2.10;;;0.45;;
6580;SDS011;3324;50.796;7.228;2022-11-13T05:26:35;0.30;;;0.20;;
6580;SDS011;3324;50.796;7.228;2022-11-13T05:29:02;2.10;;;0.50;;
6580;SDS011;3324;50.796;7.228;2022-11-13T05:31:27;2.30;;;0.50;;
6580;SDS011;3324;50.796;7.228;2022-11-13T05:33:53;2.10;;;0.50;;
6580;SDS011;3324;50.796;7.228;2022-11-13T05:36:19;0.30;;;0.20;;
6580;SDS011;3324;50.796;7.228;2022-11-13T05:38:45;0.30;;;0.20;;
6580;SDS011;3324;50.796;7.228;2022-11-13T05:41:20;0.30;;;0.20;;
6580;SDS011;3324;50.796;7.228;2022-11-13T05:43:46;0.20;;;0.10;;
6580;SDS011;3324;50.796;7.228;2022-11-13T05:46:14;0.30;;;0.10;;
6580;SDS011;3324;50.796;7.228;2022-11-13T05:48:41;0.30;;;0.10;;
6580;SDS011;3324;50.796;7.228;2022-11-13T05:51:17;0.30;;;0.10;;
6580;SDS011;3324;50.796;7.228;2022-11-13T05:53:44;0.30;;;0.10;;
6580;SDS011;3324;50.796;7.228;2022-11-13T05:56:11;0.30;;;0.10;;
6580;SDS011;3324;50.796;7.228;2022-11-13T05:58:39;0.20;;;0.10;;
6580;SDS011;3324;50.796;7.228;2022-11-13T06:01:10;2.10;;;0.50;;
6580;SDS011;3324;50.796;7.228;2022-11-13T06:03:37;2.10;;;0.50;;
6580;SDS011;3324;50.796;7.228;2022-11-13T06:06:04;2.10;;;0.50;;
6580;SDS011;3324;50.796;7.228;2022-11-13T06:08:31;0.30;;;0.10;;
6580;SDS011;3324;50.796;7.228;2022-11-13T06:10:57;0.30;;;0.20;;
6580;SDS011;3324;50.796;7.228;2022-11-13T06:13:27;0.30;;;0.20;;
6580;SDS011;3324;50.796;7.228;2022-11-13T06:15:54;0.30;;;0.10;;
6580;SDS011;3324;50.796;7.228;2022-11-13T06:18:29;0.30;;;0.10;;
6580;SDS011;3324;50.796;7.228;2022-11-13T06:20:54;0.30;;;0.20;;
6580;SDS011;3324;50.796;7.228;2022-11-13T06:23:24;0.30;;;0.10;;
6580;SDS011;3324;50.796;7.228;2022-11-13T06:25:49;0.30;;;0.10;;
6580;SDS011;3324;50.796;7.228;2022-11-13T06:28:15;0.30;;;0.10;;
6580;SDS011;3324;50.796;7.228;2022-11-13T06:30:41;0.30;;;0.10;;
6580;SDS011;3324;50.796;7.228;2022-11-13T06:33:06;2.10;;;0.50;;
6580;SDS011;3324;50.796;7.228;2022-11-13T06:35:32;1.20;;;0.20;;
6580;SDS011;3324;50.796;7.228;2022-11-13T06:37:57;0.20;;;0.10;;
6580;SDS011;3324;50.796;7.228;2022-11-13T06:40:23;0.20;;;0.10;;
6580;SDS011;3324;50.796;7.228;2022-11-13T06:42:49;0.30;;;0.10;;
6580;SDS011;3324;50.796;7.228;2022-11-13T06:45:14;2.10;;;0.50;;
6580;SDS011;3324;50.796;7.228;2022-11-13T06:47:40;2.20;;;0.50;;
6580;SDS011;3324;50.796;7.228;2022-11-13T06:50:05;0.30;;;0.10;;
6580;SDS011;3324;50.796;7.228;2022-11-13T06:52:32;0.30;;;0.20;;
6580;SDS011;3324;50.796;7.228;2022-11-13T06:54:58;0.30;;;0.10;;
6580;SDS011;3324;50.796;7.228;2022-11-13T06:57:25;2.30;;;0.50;;
6580;SDS011;3324;50.796;7.228;2022-11-13T06:59:51;2.10;;;0.50;;
6580;SDS011;3324;50.796;7.228;2022-11-13T07:02:16;0.30;;;0.10;;
6580;SDS011;3324;50.796;7.228;2022-11-13T07:04:42;0.30;;;0.10;;
6580;SDS011;3324;50.796;7.228;2022-11-13T07:07:07;0.30;;;0.20;;
6580;SDS011;3324;50.796;7.228;2022-11-13T07:09:33;2.10;;;0.50;;
6580;SDS011;3324;50.796;7.228;2022-11-13T07:11:58;2.30;;;0.50;;
6580;SDS011;3324;50.796;7.228;2022-11-13T07:14:24;0.30;;;0.20;;
6580;SDS011;3324;50.796;7.228;2022-11-13T07:16:49;0.30;;;0.20;;
6580;SDS011;3324;50.796;7.228;2022-11-13T07:19:15;0.30;;;0.20;;
6580;SDS011;3324;50.796;7.228;2022-11-13T07:21:40;2.10;;;0.50;;
6580;SDS011;3324;50.796;7.228;2022-11-13T07:24:06;2.10;;;0.50;;
6580;SDS011;3324;50.796;7.228;2022-11-13T07:26:32;0.30;;;0.20;;
6580;SDS011;3324;50.796;7.228;2022-11-13T07:28:57;0.30;;;0.10;;
6580;SDS011;3324;50.796;7.228;2022-11-13T07:31:23;0.20;;;0.10;;
6580;SDS011;3324;50.796;7.228;2022-11-13T07:33:49;2.10;;;0.50;;
6580;SDS011;3324;50.796;7.228;2022-11-13T07:36:15;0.30;;;0.20;;
6580;SDS011;3324;50.796;7.228;2022-11-13T07:38:41;0.30;;;0.20;;
6580;SDS011;3324;50.796;7.228;2022-11-13T07:41:07;2.10;;;0.50;;
6580;SDS011;3324;50.796;7.228;2022-11-13T07:43:33;0.30;;;0.10;;
6580;SDS011;3324;50.796;7.228;2022-11-13T07:45:59;0.30;;;0.20;;
6580;SDS011;3324;50.796;7.228;2022-11-13T07:48:25;0.30;;;0.20;;
6580;SDS011;3324;50.796;7.228;2022-11-13T07:50:51;0.30;;;0.20;;
6580;SDS011;3324;50.796;7.228;2022-11-13T07:53:18;0.20;;;0.20;;
6580;SDS011;3324;50.796;7.228;2022-11-13T07:55:44;2.10;;;0.50;;
6580;SDS011;3324;50.796;7.228;2022-11-13T07:58:10;2.10;;;0.50;;
6580;SDS011;3324;50.796;7.228;2022-11-13T08:00:36;2.10;;;0.50;;
6580;SDS011;3324;50.796;7.228;2022-11-13T08:03:03;2.10;;;0.50;;
6580;SDS011;3324;50.796;7.228;2022-11-13T08:05:30;0.30;;;0.10;;
6580;SDS011;3324;50.796;7.228;2022-11-13T08:07:56;0.30;;;0.20;;
6580;SDS011;3324;50.796;7.228;2022-11-13T08:10:21;2.10;;;0.50;;
6580;SDS011;3324;50.796;7.228;2022-11-13T08:12:47;2.10;;;0.50;;
6580;SDS011;3324;50.796;7.228;2022-11-13T08:15:12;0.20;;;0.20;;
6580;SDS011;3324;50.796;7.228;2022-11-13T08:17:38;0.20;;;0.20;;
6580;SDS011;3324;50.796;7.228;2022-11-13T08:20:05;0.20;;;0.20;;
6580;SDS011;3324;50.796;7.228;2022-11-13T08:22:31;0.20;;;0.20;;
6580;SDS011;3324;50.796;7.228;2022-11-13T08:24:59;2.10;;;0.50;;
6580;SDS011;3324;50.796;7.228;2022-11-13T08:27:25;2.00;;;0.50;;
6580;SDS011;3324;50.796;7.228;2022-11-13T08:29:50;1.70;;;0.50;;
6580;SDS011;3324;50.796;7.228;2022-11-13T08:32:17;0.20;;;0.20;;
6580;SDS011;3324;50.796;7.228;2022-11-13T08:34:44;2.00;;;0.60;;
6580;SDS011;3324;50.796;7.228;2022-11-13T08:37:09;2.10;;;0.60;;
6580;SDS011;3324;50.796;7.228;2022-11-13T08:39:35;0.70;;;0.10;;
6580;SDS011;3324;50.796;7.228;2022-11-13T08:42:02;0.20;;;0.10;;
6580;SDS011;3324;50.796;7.228;2022-11-13T08:44:28;2.10;;;0.50;;
6580;SDS011;3324;50.796;7.228;2022-11-13T08:46:54;2.30;;;0.50;;
6580;SDS011;3324;50.796;7.228;2022-11-13T08:49:20;0.30;;;0.10;;
6580;SDS011;3324;50.796;7.228;2022-11-13T08:51:45;0.20;;;0.10;;
6580;SDS011;3324;50.796;7.228;2022-11-13T08:54:11;0.30;;;0.10;;
6580;SDS011;3324;50.796;7.228;2022-11-13T08:56:36;2.30;;;0.60;;
6580;SDS011;3324;50.796;7.228;2022-11-13T08:59:02;2.10;;;0.60;;
6580;SDS011;3324;50.796;7.228;2022-11-13T09:01:28;0.30;;;0.20;;
6580;SDS011;3324;50.796;7.228;2022-11-13T09:03:53;0.30;;;0.20;;
6580;SDS011;3324;50.796;7.228;2022-11-13T09:06:19;0.30;;;0.20;;
6580;SDS011;3324;50.796;7.228;2022-11-13T09:08:44;2.10;;;0.60;;
6580;SDS011;3324;50.796;7.228;2022-11-13T09:11:10;2.30;;;0.60;;
6580;SDS011;3324;50.796;7.228;2022-11-13T09:13:36;0.30;;;0.30;;
6580;SDS011;3324;50.796;7.228;2022-11-13T09:16:02;0.30;;;0.20;;
6580;SDS011;3324;50.796;7.228;2022-11-13T09:18:28;0.30;;;0.20;;
6580;SDS011;3324;50.796;7.228;2022-11-13T09:20:54;0.30;;;0.20;;
6580;SDS011;3324;50.796;7.228;2022-11-13T09:23:24;0.30;;;0.10;;
6580;SDS011;3324;50.796;7.228;2022-11-13T09:25:49;0.30;;;0.20;;
6580;SDS011;3324;50.796;7.228;2022-11-13T09:28:15;0.30;;;0.10;;
6580;SDS011;3324;50.796;7.228;2022-11-13T09:30:41;2.10;;;0.50;;
6580;SDS011;3324;50.796;7.228;2022-11-13T09:33:06;2.10;;;0.50;;
6580;SDS011;3324;50.796;7.228;2022-11-13T09:35:34;2.10;;;0.50;;
6580;SDS011;3324;50.796;7.228;2022-11-13T09:40:34;0.30;;;0.20;;
6580;SDS011;3324;50.796;7.228;2022-11-13T09:43:00;0.30;;;0.20;;
6580;SDS011;3324;50.796;7.228;2022-11-13T09:45:30;0.30;;;0.20;;
6580;SDS011;3324;50.796;7.228;2022-11-13T09:47:58;2.10;;;0.50;;
6580;SDS011;3324;50.796;7.228;2022-11-13T09:50:44;0.30;;;0.20;;
6580;SDS011;3324;50.796;7.228;2022-11-13T09:53:10;0.30;;;0.20;;
6580;SDS011;3324;50.796;7.228;2022-11-13T09:55:40;0.30;;;0.20;;
6580;SDS011;3324;50.796;7.228;2022-11-13T09:58:23;2.10;;;0.50;;
6580;SDS011;3324;50.796;7.228;2022-11-13T10:00:56;0.30;;;0.20;;
6580;SDS011;3324;50.796;7.228;2022-11-13T10:03:31;0.30;;;0.20;;
6580;SDS011;3324;50.796;7.228;2022-11-13T10:06:12;2.10;;;0.60;;
6580;SDS011;3324;50.796;7.228;2022-11-13T10:08:56;0.30;;;0.20;;
6580;SDS011;3324;50.796;7.228;2022-11-13T10:11:35;0.30;;;0.30;;
6580;SDS011;3324;50.796;7.228;2022-11-13T10:14:28;0.30;;;0.30;;
6580;SDS011;3324;50.796;7.228;2022-11-13T10:17:10;0.30;;;0.30;;
6580;SDS011;3324;50.796;7.228;2022-11-13T10:19:44;2.10;;;0.70;;
6580;SDS011;3324;50.796;7.228;2022-11-13T10:22:49;0.30;;;0.30;;
6580;SDS011;3324;50.796;7.228;2022-11-13T10:25:21;0.30;;;0.30;;
6580;SDS011;3324;50.796;7.228;2022-11-13T10:27:59;0.30;;;0.30;;
6580;SDS011;3324;50.796;7.228;2022-11-13T10:30:26;2.10;;;0.70;;
6580;SDS011;3324;50.796;7.228;2022-11-13T10:32:53;0.30;;;0.30;;
6580;SDS011;3324;50.796;7.228;2022-11-13T10:35:36;2.10;;;0.70;;
6580;SDS011;3324;50.796;7.228;2022-11-13T10:40:39;2.10;;;0.80;;
6580;SDS011;3324;50.796;7.228;2022-11-13T10:45:57;2.10;;;0.80;;
6580;SDS011;3324;50.796;7.228;2022-11-13T10:48:26;0.50;;;0.50;;
6580;SDS011;3324;50.796;7.228;2022-11-13T10:50:54;0.40;;;0.40;;
6580;SDS011;3324;50.796;7.228;2022-11-13T10:53:22;0.30;;;0.30;;
6580;SDS011;3324;50.796;7.228;2022-11-13T10:55:50;2.10;;;0.70;;
6580;SDS011;3324;50.796;7.228;2022-11-13T10:58:20;0.40;;;0.40;;
6580;SDS011;3324;50.796;7.228;2022-11-13T11:00:46;0.40;;;0.40;;
6580;SDS011;3324;50.796;7.228;2022-11-13T11:03:14;0.35;;;0.35;;
6580;SDS011;3324;50.796;7.228;2022-11-13T11:08:25;0.40;;;0.40;;
6580;SDS011;3324;50.796;7.228;2022-11-13T11:11:01;0.40;;;0.40;;
6580;SDS011;3324;50.796;7.228;2022-11-13T11:13:50;0.40;;;0.40;;
6580;SDS011;3324;50.796;7.228;2022-11-13T11:16:17;0.30;;;0.30;;
6580;SDS011;3324;50.796;7.228;2022-11-13T11:18:53;0.30;;;0.30;;
6580;SDS011;3324;50.796;7.228;2022-11-13T11:21:24;0.40;;;0.40;;
6580;SDS011;3324;50.796;7.228;2022-11-13T11:23:55;0.40;;;0.40;;
6580;SDS011;3324;50.796;7.228;2022-11-13T11:26:34;0.40;;;0.40;;
6580;SDS011;3324;50.796;7.228;2022-11-13T11:35:14;0.40;;;0.40;;
6580;SDS011;3324;50.796;7.228;2022-11-13T11:37:47;2.10;;;0.80;;
6580;SDS011;3324;50.796;7.228;2022-11-13T11:40:29;0.40;;;0.40;;
6580;SDS011;3324;50.796;7.228;2022-11-13T11:45:47;0.30;;;0.30;;
6580;SDS011;3324;50.796;7.228;2022-11-13T11:48:34;0.10;;;0.10;;
6580;SDS011;3324;50.796;7.228;2022-11-13T12:08:05;0.40;;;0.40;;
6580;SDS011;3324;50.796;7.228;2022-11-13T12:14:50;0.35;;;0.35;;
6580;SDS011;3324;50.796;7.228;2022-11-13T12:20:00;0.90;;;0.90;;
6580;SDS011;3324;50.796;7.228;2022-11-13T12:25:48;3.45;;;3.25;;
6580;SDS011;3324;50.796;7.228;2022-11-13T12:31:04;5.20;;;5.00;;
6580;SDS011;3324;50.796;7.228;2022-11-13T12:33:53;6.65;;;6.35;;
6580;SDS011;3324;50.796;7.228;2022-11-13T12:36:27;1.70;;;1.60;;
6580;SDS011;3324;50.796;7.228;2022-11-13T12:41:28;5.90;;;5.80;;
6580;SDS011;3324;50.796;7.228;2022-11-13T12:44:21;3.42;;;3.42;;
6580;SDS011;3324;50.796;7.228;2022-11-13T12:46:55;1.65;;;1.65;;
6580;SDS011;3324;50.796;7.228;2022-11-13T12:52:00;7.03;;;6.93;;
6580;SDS011;3324;50.796;7.228;2022-11-13T12:54:31;8.57;;;8.20;;
6580;SDS011;3324;50.796;7.228;2022-11-13T12:59:45;5.97;;;5.88;;
6580;SDS011;3324;50.796;7.228;2022-11-13T13:13:16;7.90;;;7.80;;
6580;SDS011;3324;50.796;7.228;2022-11-13T13:16:03;8.40;;;8.20;;
6580;SDS011;3324;50.796;7.228;2022-11-13T13:18:35;9.95;;;9.50;;
6580;SDS011;3324;50.796;7.228;2022-11-13T13:21:12;8.50;;;8.30;;
6580;SDS011;3324;50.796;7.228;2022-11-13T13:23:44;10.20;;;9.90;;
6580;SDS011;3324;50.796;7.228;2022-11-13T13:26:15;11.10;;;10.60;;
6580;SDS011;3324;50.796;7.228;2022-11-13T13:36:56;10.70;;;10.20;;
6580;SDS011;3324;50.796;7.228;2022-11-13T13:39:59;10.50;;;10.20;;
6580;SDS011;3324;50.796;7.228;2022-11-13T13:45:22;10.30;;;10.00;;
6580;SDS011;3324;50.796;7.228;2022-11-13T13:48:09;10.40;;;10.10;;
6580;SDS011;3324;50.796;7.228;2022-11-13T13:50:41;10.00;;;9.70;;
6580;SDS011;3324;50.796;7.228;2022-11-13T13:53:11;10.10;;;9.80;;
6580;SDS011;3324;50.796;7.228;2022-11-13T13:55:44;8.85;;;8.65;;
6580;SDS011;3324;50.796;7.228;2022-11-13T13:58:13;9.00;;;8.80;;
6580;SDS011;3324;50.796;7.228;2022-11-13T14:00:42;9.00;;;8.80;;
6580;SDS011;3324;50.796;7.228;2022-11-13T14:03:19;9.50;;;9.10;;
6580;SDS011;3324;50.796;7.228;2022-11-13T14:05:46;8.60;;;8.40;;
6580;SDS011;3324;50.796;7.228;2022-11-13T14:08:21;8.40;;;8.20;;
6580;SDS011;3324;50.796;7.228;2022-11-13T14:10:49;9.40;;;9.00;;
6580;SDS011;3324;50.796;7.228;2022-11-13T14:13:27;9.00;;;8.80;;
6580;SDS011;3324;50.796;7.228;2022-11-13T14:16:03;8.70;;;8.50;;
6580;SDS011;3324;50.796;7.228;2022-11-13T14:18:30;9.20;;;8.80;;
6580;SDS011;3324;50.796;7.228;2022-11-13T14:20:58;9.15;;;8.75;;
6580;SDS011;3324;50.796;7.228;2022-11-13T14:23:34;8.30;;;8.10;;
6580;SDS011;3324;50.796;7.228;2022-11-13T14:26:05;8.23;;;8.02;;
6580;SDS011;3324;50.796;7.228;2022-11-13T14:28:41;8.70;;;8.50;;
6580;SDS011;3324;50.796;7.228;2022-11-13T14:31:26;8.23;;;8.10;;
6580;SDS011;3324;50.796;7.228;2022-11-13T14:33:55;7.50;;;7.40;;
6580;SDS011;3324;50.796;7.228;2022-11-13T14:36:30;7.40;;;7.30;;
6580;SDS011;3324;50.796;7.228;2022-11-13T14:38:58;5.95;;;5.85;;
6580;SDS011;3324;50.796;7.228;2022-11-13T14:44:10;3.35;;;3.15;;
6580;SDS011;3324;50.796;7.228;2022-11-13T14:46:38;3.40;;;3.40;;
6580;SDS011;3324;50.796;7.228;2022-11-13T14:49:13;5.20;;;5.10;;
6580;SDS011;3324;50.796;7.228;2022-11-13T14:51:54;6.60;;;6.50;;
6580;SDS011;3324;50.796;7.228;2022-11-13T14:54:31;4.77;;;4.67;;
6580;SDS011;3324;50.796;7.228;2022-11-13T14:57:13;0.83;;;0.83;;
6580;SDS011;3324;50.796;7.228;2022-11-13T14:59:40;3.53;;;3.53;;
6580;SDS011;3324;50.796;7.228;2022-11-13T15:02:09;4.35;;;4.05;;
6580;SDS011;3324;50.796;7.228;2022-11-13T15:04:36;3.40;;;3.40;;
6580;SDS011;3324;50.796;7.228;2022-11-13T15:07:02;0.40;;;0.40;;
6580;SDS011;3324;50.796;7.228;2022-11-13T15:09:42;2.20;;;1.70;;
6580;SDS011;3324;50.796;7.228;2022-11-13T15:12:09;0.30;;;0.30;;
6580;SDS011;3324;50.796;7.228;2022-11-13T15:14:37;3.30;;;3.30;;
6580;SDS011;3324;50.796;7.228;2022-11-13T15:17:06;8.55;;;8.15;;
6580;SDS011;3324;50.796;7.228;2022-11-13T15:19:38;2.35;;;2.35;;
6580;SDS011;3324;50.796;7.228;2022-11-13T15:22:07;5.00;;;4.70;;
6580;SDS011;3324;50.796;7.228;2022-11-13T15:24:35;3.70;;;3.70;;
6580;SDS011;3324;50.796;7.228;2022-11-13T15:27:00;7.10;;;7.00;;
6580;SDS011;3324;50.796;7.228;2022-11-13T15:29:26;7.28;;;6.97;;
6580;SDS011;3324;50.796;7.228;2022-11-13T15:31:52;6.90;;;6.60;;
6580;SDS011;3324;50.796;7.228;2022-11-13T15:34:18;6.00;;;5.90;;
6580;SDS011;3324;50.796;7.228;2022-11-13T15:36:44;5.15;;;5.05;;
6580;SDS011;3324;50.796;7.228;2022-11-13T15:39:10;5.60;;;5.50;;
6580;SDS011;3324;50.796;7.228;2022-11-13T15:41:36;5.30;;;5.20;;
6580;SDS011;3324;50.796;7.228;2022-11-13T15:44:03;0.60;;;0.60;;
6580;SDS011;3324;50.796;7.228;2022-11-13T15:46:34;2.95;;;2.75;;
6580;SDS011;3324;50.796;7.228;2022-11-13T15:49:00;2.50;;;2.30;;
6580;SDS011;3324;50.796;7.228;2022-11-13T15:56:40;0.20;;;0.20;;
6580;SDS011;3324;50.796;7.228;2022-11-13T15:59:08;0.20;;;0.20;;
6580;SDS011;3324;50.796;7.228;2022-11-13T16:01:36;0.30;;;0.30;;
6580;SDS011;3324;50.796;7.228;2022-11-13T16:04:01;0.20;;;0.20;;
6580;SDS011;3324;50.796;7.228;2022-11-13T16:06:29;2.10;;;1.40;;
6580;SDS011;3324;50.796;7.228;2022-11-13T16:08:58;0.30;;;0.30;;
6580;SDS011;3324;50.796;7.228;2022-11-13T16:11:24;0.30;;;0.30;;
6580;SDS011;3324;50.796;7.228;2022-11-13T16:13:49;0.30;;;0.30;;
6580;SDS011;3324;50.796;7.228;2022-11-13T16:18:48;2.00;;;0.70;;
6580;SDS011;3324;50.796;7.228;2022-11-13T16:21:14;2.00;;;0.70;;
6580;SDS011;3324;50.796;7.228;2022-11-13T16:23:41;0.30;;;0.30;;
6580;SDS011;3324;50.796;7.228;2022-11-13T16:26:14;0.30;;;0.30;;
6580;SDS011;3324;50.796;7.228;2022-11-13T16:28:45;2.00;;;0.70;;
6580;SDS011;3324;50.796;7.228;2022-11-13T16:31:12;2.00;;;0.60;;
6580;SDS011;3324;50.796;7.228;2022-11-13T16:33:38;2.10;;;0.70;;
6580;SDS011;3324;50.796;7.228;2022-11-13T16:36:03;2.00;;;0.70;;
6580;SDS011;3324;50.796;7.228;2022-11-13T16:38:29;0.30;;;0.30;;
6580;SDS011;3324;50.796;7.228;2022-11-13T16:40:55;0.30;;;0.30;;
6580;SDS011;3324;50.796;7.228;2022-11-13T16:43:20;0.30;;;0.30;;
6580;SDS011;3324;50.796;7.228;2022-11-13T16:45:46;2.00;;;0.60;;
6580;SDS011;3324;50.796;7.228;2022-11-13T16:48:12;0.30;;;0.30;;
6580;SDS011;3324;50.796;7.228;2022-11-13T16:50:39;0.30;;;0.30;;
6580;SDS011;3324;50.796;7.228;2022-11-13T16:53:06;2.00;;;0.60;;
6580;SDS011;3324;50.796;7.228;2022-11-13T16:55:36;0.20;;;0.20;;
6580;SDS011;3324;50.796;7.228;2022-11-13T16:58:02;2.00;;;0.50;;
6580;SDS011;3324;50.796;7.228;2022-11-13T17:00:28;2.10;;;0.60;;
6580;SDS011;3324;50.796;7.228;2022-11-13T17:02:54;2.20;;;0.60;;